createdAt,value
2022-12-01T00:01:21.530Z,35.04
2022-12-01T00:03:50.165Z,35.41
2022-12-01T00:06:20.480Z,35.60
2022-12-01T00:09:09.182Z,34.89
2022-12-01T00:11:38.510Z,34.70
2022-12-01T00:14:07.385Z,35.26
2022-12-01T00:16:35.661Z,34.94
2022-12-01T00:19:04.066Z,35.24
2022-12-01T00:21:32.216Z,35.59
2022-12-01T00:24:01.886Z,34.62
2022-12-01T00:26:29.915Z,34.78
2022-12-01T00:28:59.997Z,35.15
2022-12-01T00:31:28.460Z,35.17
2022-12-01T00:33:57.150Z,35.61
2022-12-01T00:36:25.668Z,36.22
2022-12-01T00:38:55.195Z,36.20
2022-12-01T00:41:25.828Z,35.69
2022-12-01T00:43:54.270Z,36.34
2022-12-01T00:46:22.515Z,36.44
2022-12-01T00:48:50.913Z,36.04
2022-12-01T00:51:19.102Z,36.23
2022-12-01T00:53:47.451Z,36.85
2022-12-01T00:56:16.108Z,36.45
2022-12-01T00:58:45.759Z,36.79
2022-12-01T01:01:13.937Z,36.93
2022-12-01T01:03:42.410Z,36.74
2022-12-01T01:06:12.305Z,37.26
2022-12-01T01:08:41.318Z,37.34
2022-12-01T01:11:09.938Z,36.33
2022-12-01T01:13:38.895Z,35.96
2022-12-01T01:16:11.162Z,36.35
2022-12-01T01:18:39.487Z,36.74
2022-12-01T01:21:09.440Z,37.50
2022-12-01T01:23:37.810Z,37.47
2022-12-01T01:26:07.548Z,36.35
2022-12-01T01:28:36.181Z,36.62
2022-12-01T01:31:06.764Z,36.57
2022-12-01T01:33:36.651Z,34.91
2022-12-01T01:36:08.061Z,35.80
2022-12-01T01:38:36.773Z,36.38
2022-12-01T01:41:05.900Z,36.69
2022-12-01T01:43:43.632Z,35.80
2022-12-01T01:46:13.449Z,35.90
2022-12-01T01:48:44.932Z,35.76
2022-12-01T01:51:13.720Z,36.52
2022-12-01T01:53:43.222Z,36.75
2022-12-01T01:56:11.603Z,36.23
2022-12-01T01:58:40.774Z,35.75
2022-12-01T02:01:09.479Z,36.22
2022-12-01T02:03:39.420Z,36.53
2022-12-01T02:06:09.771Z,37.14
2022-12-01T02:08:38.324Z,36.75
2022-12-01T02:11:30.724Z,35.99
2022-12-01T02:14:07.751Z,35.79
2022-12-01T02:16:43.250Z,36.26
2022-12-01T02:19:29.006Z,35.93
2022-12-01T02:22:04.896Z,36.30
2022-12-01T02:24:52.029Z,36.21
2022-12-01T02:27:30.874Z,35.56
2022-12-01T02:30:07.267Z,35.37
2022-12-01T02:32:46.173Z,35.46
2022-12-01T02:35:18.087Z,35.64
2022-12-01T02:37:50.940Z,36.19
2022-12-01T02:40:21.709Z,36.93
2022-12-01T02:42:54.529Z,37.49
2022-12-01T02:45:29.741Z,37.11
2022-12-01T02:48:02.661Z,37.14
2022-12-01T02:50:32.767Z,38.04
2022-12-01T02:53:01.391Z,37.61
2022-12-01T02:55:29.773Z,36.83
2022-12-01T02:57:57.811Z,37.99
2022-12-01T03:00:26.293Z,37.83
2022-12-01T03:03:17.987Z,36.79
2022-12-01T03:05:51.287Z,36.63
2022-12-01T03:08:24.592Z,36.81
2022-12-01T03:10:55.234Z,36.75
2022-12-01T03:13:33.603Z,36.65
2022-12-01T03:16:04.909Z,37.19
2022-12-01T03:18:38.170Z,37.24
2022-12-01T03:21:10.363Z,37.69
2022-12-01T03:23:41.064Z,37.99
2022-12-01T03:26:11.599Z,38.09
2022-12-01T03:28:44.911Z,37.73
2022-12-01T03:31:17.307Z,37.88
2022-12-01T03:33:50.580Z,37.11
2022-12-01T03:36:24.065Z,36.53
2022-12-01T03:38:56.004Z,37.30
2022-12-01T03:41:29.262Z,37.49
2022-12-01T03:44:03.144Z,37.34
2022-12-01T03:46:38.221Z,36.25
2022-12-01T03:49:09.102Z,37.59
2022-12-01T03:51:43.334Z,36.84
2022-12-01T03:54:16.776Z,37.74
2022-12-01T03:56:48.893Z,37.26
2022-12-01T03:59:17.877Z,37.21
2022-12-01T04:01:46.790Z,36.66
2022-12-01T04:04:16.696Z,37.07
2022-12-01T04:06:47.827Z,37.95
2022-12-01T04:09:16.233Z,37.43
2022-12-01T04:12:02.045Z,38.46
2022-12-01T04:14:30.334Z,37.94
2022-12-01T04:16:58.662Z,37.90
2022-12-01T04:19:28.515Z,38.84
2022-12-01T04:21:56.874Z,37.72
2022-12-01T04:24:25.002Z,36.90
2022-12-01T04:26:53.303Z,37.14
2022-12-01T04:29:21.557Z,37.12
2022-12-01T04:31:50.229Z,37.55
2022-12-01T04:34:18.547Z,37.68
2022-12-01T04:36:48.152Z,37.92
2022-12-01T04:39:16.635Z,36.92
2022-12-01T04:41:44.676Z,37.62
2022-12-01T04:44:13.456Z,37.10
2022-12-01T04:46:41.784Z,37.13
2022-12-01T04:49:10.332Z,37.41
2022-12-01T04:51:38.404Z,36.89
2022-12-01T04:54:08.134Z,37.01
2022-12-01T04:56:36.282Z,37.89
2022-12-01T04:59:04.704Z,37.37
2022-12-01T05:01:32.957Z,37.22
2022-12-01T05:04:01.518Z,37.63
2022-12-01T05:06:30.615Z,37.41
2022-12-01T05:09:00.653Z,36.87
2022-12-01T05:11:33.043Z,37.19
2022-12-01T05:14:01.727Z,37.91
2022-12-01T05:16:32.526Z,37.64
2022-12-01T05:19:20.400Z,36.40
2022-12-01T05:21:49.564Z,38.72
2022-12-01T05:24:19.353Z,39.28
2022-12-01T05:26:48.885Z,39.36
2022-12-01T05:29:17.412Z,38.47
2022-12-01T05:31:46.575Z,37.63
2022-12-01T05:34:15.221Z,37.82
2022-12-01T05:36:43.545Z,37.27
2022-12-01T05:39:11.966Z,37.32
2022-12-01T05:41:40.114Z,37.23
2022-12-01T05:44:10.030Z,36.29
2022-12-01T05:46:38.185Z,37.48
2022-12-01T05:49:07.358Z,37.04
2022-12-01T05:51:35.634Z,36.88
2022-12-01T05:54:04.226Z,36.83
2022-12-01T05:56:32.321Z,38.05
2022-12-01T05:59:00.718Z,37.68
2022-12-01T06:01:30.329Z,37.40
2022-12-01T06:03:58.844Z,37.62
2022-12-01T06:06:26.969Z,37.45
2022-12-01T06:08:55.386Z,37.20
2022-12-01T06:11:23.464Z,37.62
2022-12-01T06:13:52.230Z,37.46
2022-12-01T06:16:20.453Z,36.84
2022-12-01T06:18:50.348Z,36.38
2022-12-01T06:21:18.516Z,36.69
2022-12-01T06:23:47.063Z,37.29
2022-12-01T06:26:15.391Z,37.88
2022-12-01T06:28:43.843Z,36.89
2022-12-01T06:31:11.936Z,37.17
2022-12-01T06:33:40.350Z,36.48
2022-12-01T06:36:11.660Z,36.14
2022-12-01T06:38:40.080Z,36.62
2022-12-01T06:41:08.210Z,36.80
2022-12-01T06:43:36.962Z,37.77
2022-12-01T06:46:05.910Z,38.34
2022-12-01T06:48:34.561Z,37.73
2022-12-01T06:51:03.418Z,38.52
2022-12-01T06:53:33.223Z,38.72
2022-12-01T06:56:01.882Z,37.68
2022-12-01T06:58:30.787Z,37.97
2022-12-01T07:00:59.816Z,37.15
2022-12-01T07:03:28.377Z,36.54
2022-12-01T07:05:58.847Z,38.20
2022-12-01T07:08:27.490Z,37.90
2022-12-01T07:11:00.675Z,38.32
2022-12-01T07:13:33.468Z,38.61
2022-12-01T07:16:03.152Z,38.41
2022-12-01T07:18:32.507Z,37.82
2022-12-01T07:21:02.086Z,38.42
2022-12-01T07:23:30.811Z,38.84
2022-12-01T07:26:01.402Z,37.90
2022-12-01T07:28:30.068Z,38.45
2022-12-01T07:31:03.144Z,37.06
2022-12-01T07:33:32.270Z,38.15
2022-12-01T07:36:00.905Z,38.18
2022-12-01T07:38:29.772Z,37.78
2022-12-01T07:41:04.342Z,37.39
2022-12-01T07:43:33.419Z,38.08
2022-12-01T07:46:06.717Z,37.90
2022-12-01T07:48:35.455Z,37.70
2022-12-01T07:51:04.603Z,38.81
2022-12-01T07:53:33.304Z,38.12
2022-12-01T07:56:07.007Z,37.94
2022-12-01T07:58:37.040Z,38.38
2022-12-01T08:01:08.765Z,37.99
2022-12-01T08:03:37.608Z,38.85
2022-12-01T08:06:06.992Z,38.78
2022-12-01T08:08:37.018Z,39.43
2022-12-01T08:11:09.501Z,38.20
2022-12-01T08:13:40.110Z,39.61
2022-12-01T08:16:09.867Z,39.24
2022-12-01T08:18:38.949Z,39.11
2022-12-01T08:21:08.476Z,38.51
2022-12-01T08:23:36.864Z,37.22
2022-12-01T08:26:08.465Z,37.70
2022-12-01T08:28:37.469Z,37.24
2022-12-01T08:31:10.920Z,36.95
2022-12-01T08:33:39.472Z,37.68
2022-12-01T08:36:08.283Z,37.33
2022-12-01T08:38:36.996Z,37.54
2022-12-01T08:41:08.402Z,36.97
2022-12-01T08:46:29.864Z,37.05
2022-12-01T08:48:58.511Z,37.64
2022-12-01T08:51:27.392Z,37.27
2022-12-01T08:53:56.486Z,38.02
2022-12-01T08:56:28.154Z,36.85
2022-12-01T08:58:56.887Z,37.56
2022-12-01T09:01:25.874Z,38.18
2022-12-01T09:04:05.962Z,38.01
2022-12-01T09:06:35.530Z,37.64
2022-12-01T09:09:04.031Z,37.06
2022-12-01T09:11:33.764Z,37.37
2022-12-01T09:14:02.897Z,36.97
2022-12-01T09:16:31.233Z,36.62
2022-12-01T09:18:59.648Z,36.61
2022-12-01T09:21:30.716Z,37.70
2022-12-01T09:23:59.508Z,37.59
2022-12-01T09:26:28.152Z,36.82
2022-12-01T09:29:00.531Z,35.04
2022-12-01T09:31:28.973Z,37.46
2022-12-01T09:33:58.390Z,38.00
2022-12-01T09:36:27.057Z,37.28
2022-12-01T09:38:55.441Z,37.99
2022-12-01T09:41:28.772Z,36.41
2022-12-01T09:44:02.248Z,37.43
2022-12-01T09:46:36.119Z,36.60
2022-12-01T09:49:05.513Z,37.27
2022-12-01T09:51:36.315Z,37.27
2022-12-01T09:54:05.313Z,38.43
2022-12-01T09:56:37.723Z,37.45
2022-12-01T09:59:09.505Z,37.39
2022-12-01T10:01:39.425Z,38.37
2022-12-01T10:04:11.420Z,38.60
2022-12-01T10:06:42.529Z,37.57
2022-12-01T10:09:20.009Z,36.75
2022-12-01T10:11:49.163Z,36.28
2022-12-01T10:14:21.227Z,36.35
2022-12-01T10:16:56.360Z,36.04
2022-12-01T10:19:28.736Z,36.22
2022-12-01T10:22:08.590Z,36.47
2022-12-01T10:24:51.609Z,34.80
2022-12-01T10:27:33.389Z,35.54
2022-12-01T10:30:06.457Z,35.19
2022-12-01T10:32:42.074Z,35.90
2022-12-01T10:35:13.281Z,36.56
2022-12-01T10:37:41.881Z,36.59
2022-12-01T10:40:13.839Z,37.12
2022-12-01T10:42:44.306Z,37.53
2022-12-01T10:45:18.091Z,36.83
2022-12-01T10:48:13.153Z,36.31
2022-12-01T10:50:42.239Z,37.74
2022-12-01T10:53:27.658Z,35.95
2022-12-01T10:56:06.336Z,35.89
2022-12-01T10:58:40.393Z,37.12
2022-12-01T11:01:17.620Z,36.63
2022-12-01T11:03:51.641Z,35.80
2022-12-01T11:06:23.535Z,35.69
2022-12-01T11:08:54.787Z,35.81
2022-12-01T11:11:30.701Z,36.75
2022-12-01T11:14:01.263Z,37.19
2022-12-01T11:16:38.436Z,36.16
2022-12-01T11:19:27.003Z,36.52
2022-12-01T11:21:58.350Z,36.87
2022-12-01T11:24:43.714Z,36.64
2022-12-01T11:27:18.562Z,36.29
2022-12-01T11:29:48.069Z,36.61
2022-12-01T11:32:21.975Z,35.77
2022-12-01T11:34:52.608Z,36.03
2022-12-01T11:37:23.839Z,37.03
2022-12-01T11:39:52.531Z,36.80
2022-12-01T11:42:24.919Z,36.86
2022-12-01T11:44:54.642Z,37.00
2022-12-01T11:47:26.667Z,37.25
2022-12-01T11:49:56.717Z,37.85
2022-12-01T11:52:30.680Z,37.83
2022-12-01T11:55:04.409Z,36.82
2022-12-01T11:57:36.910Z,36.96
2022-12-01T12:00:14.701Z,35.76
2022-12-01T12:02:53.181Z,35.75
2022-12-01T12:05:47.516Z,35.88
2022-12-01T12:08:25.820Z,36.38
2022-12-01T12:11:00.679Z,37.51
2022-12-01T12:13:54.894Z,36.78
2022-12-01T12:16:32.084Z,36.74
2022-12-01T12:19:25.415Z,35.68
2022-12-01T12:22:11.074Z,36.10
2022-12-01T12:24:50.179Z,36.39
2022-12-01T12:27:25.305Z,36.15
2022-12-01T12:30:03.471Z,35.56
2022-12-01T12:32:46.009Z,35.77
2022-12-01T12:35:24.223Z,37.10
2022-12-01T12:37:56.792Z,36.47
2022-12-01T12:40:37.183Z,36.81
2022-12-01T12:43:19.211Z,36.60
2022-12-01T12:45:57.786Z,37.14
2022-12-01T12:48:41.689Z,36.56
2022-12-01T12:51:23.675Z,36.69
2022-12-01T12:53:58.089Z,37.07
2022-12-01T12:56:27.876Z,38.07
2022-12-01T12:58:59.375Z,37.04
2022-12-01T13:01:29.972Z,37.14
2022-12-01T13:04:01.637Z,36.36
2022-12-01T13:06:37.296Z,38.29
2022-12-01T13:09:10.356Z,38.09
2022-12-01T13:11:45.285Z,38.00
2022-12-01T13:14:18.878Z,37.28
2022-12-01T13:16:49.142Z,37.54
2022-12-01T13:19:20.018Z,37.29
2022-12-01T13:21:50.650Z,37.94
2022-12-01T13:24:23.414Z,36.50
2022-12-01T13:26:55.736Z,36.87
2022-12-01T13:29:25.388Z,37.01
2022-12-01T13:31:55.112Z,36.81
2022-12-01T13:34:26.497Z,36.82
2022-12-01T13:36:57.316Z,36.15
2022-12-01T13:39:27.859Z,37.27
2022-12-01T13:42:02.433Z,37.67
2022-12-01T13:44:34.093Z,38.04
2022-12-01T13:47:05.692Z,38.17
2022-12-01T13:49:39.980Z,38.08
2022-12-01T13:52:40.255Z,37.72
2022-12-01T13:55:29.698Z,36.37
2022-12-01T13:58:23.860Z,36.72
2022-12-01T14:00:52.260Z,37.48
2022-12-01T14:03:39.807Z,35.69
2022-12-01T14:06:21.953Z,37.65
2022-12-01T14:08:53.407Z,36.89
2022-12-01T14:11:22.675Z,36.25
2022-12-01T14:13:54.765Z,37.16
2022-12-01T14:16:23.523Z,37.53
2022-12-01T14:18:53.961Z,36.83
2022-12-01T14:21:43.924Z,36.44
2022-12-01T14:24:23.716Z,36.16
2022-12-01T14:26:52.866Z,36.75
2022-12-01T14:29:30.790Z,36.00
2022-12-01T14:32:21.343Z,36.19
2022-12-01T14:35:05.510Z,35.32
2022-12-01T14:37:40.736Z,35.35
2022-12-01T14:40:16.722Z,36.10
2022-12-01T14:43:03.681Z,35.62
2022-12-01T14:45:36.121Z,36.58
2022-12-01T14:48:06.462Z,36.90
2022-12-01T14:50:43.580Z,35.83
2022-12-01T14:53:23.607Z,36.98
2022-12-01T14:55:57.453Z,36.54
2022-12-01T14:58:28.528Z,36.85
2022-12-01T15:01:01.119Z,37.23
2022-12-01T15:03:34.666Z,36.71
2022-12-01T15:06:03.551Z,36.75
2022-12-01T15:08:41.946Z,36.18
2022-12-01T15:11:22.428Z,34.64
2022-12-01T15:13:52.558Z,35.37
2022-12-01T15:16:23.196Z,35.77
2022-12-01T15:18:51.436Z,34.65
2022-12-01T15:21:22.040Z,34.87
2022-12-01T15:23:55.145Z,34.80
2022-12-01T15:26:27.340Z,34.96
2022-12-01T15:29:16.760Z,35.33
2022-12-01T15:31:46.645Z,36.82
2022-12-01T15:34:17.342Z,36.40
2022-12-01T15:36:46.301Z,36.39
2022-12-01T15:39:16.752Z,36.34
2022-12-01T15:41:48.706Z,35.73
2022-12-01T15:44:21.973Z,36.79
2022-12-01T15:46:50.558Z,36.72
2022-12-01T15:49:20.379Z,36.36
2022-12-01T15:51:49.989Z,36.45
2022-12-01T15:54:20.996Z,36.87
2022-12-01T15:56:53.063Z,35.84
2022-12-01T15:59:28.817Z,36.12
2022-12-01T16:01:57.903Z,36.10
2022-12-01T16:04:27.441Z,35.50
2022-12-01T16:06:59.947Z,34.67
2022-12-01T16:09:31.382Z,35.42
2022-12-01T16:12:23.579Z,34.91
2022-12-01T16:15:13.110Z,35.28
2022-12-01T16:17:43.733Z,35.92
2022-12-01T16:20:22.831Z,35.75
2022-12-01T16:22:56.611Z,36.91
2022-12-01T16:25:31.400Z,36.14
2022-12-01T16:28:01.319Z,36.38
2022-12-01T16:30:35.232Z,36.48
2022-12-01T16:33:05.330Z,37.21
2022-12-01T16:35:35.030Z,37.15
2022-12-01T16:38:11.880Z,37.15
2022-12-01T16:40:42.090Z,36.96
2022-12-01T16:43:15.833Z,35.72
2022-12-01T16:45:44.550Z,37.54
2022-12-01T16:48:13.206Z,37.10
2022-12-01T16:50:41.483Z,36.25
2022-12-01T16:53:10.712Z,35.87
2022-12-01T16:55:41.437Z,36.25
2022-12-01T16:58:09.937Z,36.41
2022-12-01T17:00:39.528Z,36.28
2022-12-01T17:03:12.714Z,35.97
2022-12-01T17:05:41.622Z,35.55
2022-12-01T17:08:10.188Z,36.56
2022-12-01T17:10:40.821Z,36.82
2022-12-01T17:13:09.231Z,37.07
2022-12-01T17:15:43.127Z,35.54
2022-12-01T17:18:12.016Z,36.05
2022-12-01T17:20:40.202Z,36.49
2022-12-01T17:23:08.579Z,36.38
2022-12-01T17:25:36.711Z,36.35
2022-12-01T17:28:05.241Z,36.33
2022-12-01T17:30:33.361Z,36.18
2022-12-01T17:33:03.285Z,36.35
2022-12-01T17:35:31.584Z,35.73
2022-12-01T17:38:00.070Z,35.31
2022-12-01T17:40:28.199Z,35.68
2022-12-01T17:42:56.599Z,36.18
2022-12-01T17:45:24.660Z,35.75
2022-12-01T17:47:53.038Z,36.83
2022-12-01T17:50:22.707Z,36.06
2022-12-01T17:52:51.079Z,35.25
2022-12-01T17:55:19.628Z,35.21
2022-12-01T17:57:48.127Z,35.97
2022-12-01T18:00:17.436Z,36.02
2022-12-01T18:02:47.681Z,36.58
2022-12-01T18:05:15.947Z,36.76
2022-12-01T18:07:45.691Z,37.12
2022-12-01T18:10:13.853Z,37.29
2022-12-01T18:12:42.279Z,36.79
2022-12-01T18:15:12.211Z,36.23
2022-12-01T18:17:40.547Z,36.15
2022-12-01T18:20:09.971Z,36.08
2022-12-01T18:22:38.353Z,36.00
2022-12-01T18:25:08.752Z,36.08
2022-12-01T18:27:41.273Z,36.44
2022-12-01T18:30:11.718Z,36.67
2022-12-01T18:32:40.999Z,36.41
2022-12-01T18:35:10.088Z,36.29
2022-12-01T18:37:40.522Z,35.86
2022-12-01T18:40:11.558Z,35.33
2022-12-01T18:42:39.771Z,34.76
2022-12-01T18:45:08.635Z,35.80
2022-12-01T18:47:36.959Z,36.02
2022-12-01T18:50:05.972Z,36.04
2022-12-01T18:52:36.328Z,35.01
2022-12-01T18:55:04.613Z,35.40
2022-12-01T18:57:34.416Z,35.98
2022-12-01T19:00:02.715Z,36.53
2022-12-01T19:02:31.167Z,36.23
2022-12-01T19:04:59.664Z,35.12
2022-12-01T19:07:29.930Z,35.97
2022-12-01T19:09:58.433Z,35.31
2022-12-01T19:12:26.917Z,36.39
2022-12-01T19:14:57.212Z,36.79
2022-12-01T19:17:25.581Z,36.50
2022-12-01T19:19:53.662Z,36.60
2022-12-01T19:22:22.126Z,36.20
2022-12-01T19:24:50.860Z,35.76
2022-12-01T19:27:19.843Z,35.55
2022-12-01T19:29:47.901Z,36.43
2022-12-01T19:32:17.947Z,36.30
2022-12-01T19:34:46.314Z,37.05
2022-12-01T19:37:14.641Z,35.79
2022-12-01T19:39:42.904Z,37.17
2022-12-01T19:42:11.329Z,35.56
2022-12-01T19:44:39.580Z,36.15
2022-12-01T19:47:10.135Z,36.20
2022-12-01T19:49:39.594Z,36.73
2022-12-01T19:52:08.141Z,35.77
2022-12-01T19:54:37.872Z,36.28
2022-12-01T19:57:06.479Z,36.56
2022-12-01T19:59:34.571Z,37.61
2022-12-01T20:02:03.210Z,37.78
2022-12-01T20:04:31.438Z,37.79
2022-12-01T20:07:01.319Z,37.05
2022-12-01T20:09:29.504Z,37.18
2022-12-01T20:11:57.823Z,37.58
2022-12-01T20:14:25.998Z,36.82
2022-12-01T20:16:55.715Z,37.25
2022-12-01T20:19:23.964Z,37.64
2022-12-01T20:21:52.595Z,36.80
2022-12-01T20:24:22.908Z,37.32
2022-12-01T20:26:54.086Z,37.17
2022-12-01T20:29:25.211Z,36.64
2022-12-01T20:31:55.316Z,36.77
2022-12-01T20:34:26.232Z,36.81
2022-12-01T20:36:55.393Z,36.82
2022-12-01T20:39:25.071Z,37.04
2022-12-01T20:41:53.944Z,38.35
2022-12-01T20:44:22.128Z,37.28
2022-12-01T20:46:50.877Z,37.11
2022-12-01T20:49:19.814Z,37.31
2022-12-01T20:51:49.077Z,37.12
2022-12-01T20:54:33.775Z,37.31
2022-12-01T20:57:03.534Z,36.04
2022-12-01T20:59:31.910Z,37.05
2022-12-01T21:02:00.403Z,36.46
2022-12-01T21:04:28.512Z,36.48
2022-12-01T21:06:57.633Z,37.15
2022-12-01T21:09:28.886Z,37.43
2022-12-01T21:12:15.627Z,36.78
2022-12-01T21:14:46.842Z,36.94
2022-12-01T21:17:26.995Z,36.81
2022-12-01T21:20:01.652Z,37.72
2022-12-01T21:22:30.138Z,37.04
2022-12-01T21:25:03.736Z,37.58
2022-12-01T21:27:32.220Z,38.12
2022-12-01T21:30:02.026Z,37.26
2022-12-01T21:32:31.793Z,37.52
2022-12-01T21:35:09.332Z,37.14
2022-12-01T21:37:37.704Z,38.36
2022-12-01T21:40:15.925Z,37.28
2022-12-01T21:42:44.627Z,38.46
2022-12-01T21:45:20.629Z,38.17
2022-12-01T21:47:49.109Z,37.65
2022-12-01T21:50:21.163Z,38.06
2022-12-01T21:52:49.579Z,38.06
2022-12-01T21:55:39.532Z,37.50
2022-12-01T21:58:23.962Z,36.79
2022-12-01T22:00:56.165Z,36.13
2022-12-01T22:03:44.548Z,35.49
2022-12-01T22:06:29.746Z,35.20
2022-12-01T22:09:01.784Z,36.09
2022-12-01T22:11:31.181Z,36.18
2022-12-01T22:14:02.709Z,36.21
2022-12-01T22:16:32.427Z,35.67
2022-12-01T22:19:02.471Z,35.46
2022-12-01T22:21:35.750Z,36.42
2022-12-01T22:24:30.109Z,35.40
2022-12-01T22:27:07.574Z,35.11
2022-12-01T22:29:41.643Z,34.98
2022-12-01T22:32:36.012Z,34.62
2022-12-01T22:35:25.630Z,34.05
2022-12-01T22:37:55.970Z,34.95
2022-12-01T22:40:36.850Z,35.06
2022-12-01T22:43:22.800Z,34.37
2022-12-01T22:46:00.398Z,35.86
2022-12-01T22:48:34.829Z,34.63
2022-12-01T22:51:18.081Z,34.20
2022-12-01T22:53:47.515Z,35.23
2022-12-01T22:56:34.912Z,34.57
2022-12-01T22:59:12.446Z,34.26
2022-12-01T23:01:48.318Z,33.87
2022-12-01T23:04:24.313Z,34.11
2022-12-01T23:07:10.131Z,35.40
2022-12-01T23:09:42.530Z,36.42
2022-12-01T23:12:27.542Z,35.89
2022-12-01T23:14:59.348Z,35.79
2022-12-01T23:17:29.987Z,36.06
2022-12-01T23:20:24.801Z,36.28
2022-12-01T23:22:54.389Z,36.61
2022-12-01T23:25:23.990Z,37.13
2022-12-01T23:27:54.368Z,37.43
2022-12-01T23:30:23.422Z,36.07
2022-12-01T23:32:58.880Z,35.57
2022-12-01T23:35:28.362Z,35.57
2022-12-01T23:37:56.837Z,35.87
2022-12-01T23:40:30.132Z,35.72
2022-12-01T23:43:00.339Z,35.62
2022-12-01T23:45:28.775Z,35.20
2022-12-01T23:47:57.944Z,35.78
2022-12-01T23:50:28.081Z,35.32
2022-12-01T23:52:56.756Z,35.31
2022-12-01T23:55:27.176Z,35.65
2022-12-01T23:57:55.939Z,35.90
